Time;durP1;ratioP1;P1;durP2;ratioP2;P2;SDS_P1;SDS_P2;PMS_P1;PMS_P2;Temp;Humidity;BMP_temperature;BMP_pressure;BME280_temperature;BME280_humidity;BME280_pressure;Samples;Min_cycle;Max_cycle;Signal;HPM_P1;HPM_P2
2021/12/29 00:00:04;;;;;;;20.03;18.53;;;;;;;;;;5035187;28;20609;-74
2021/12/29 00:02:30;;;;;;;18.63;17.60;;;;;;;;;;5035094;28;20317;-75
2021/12/29 00:04:58;;;;;;;16.90;16.20;;;;;;;;;;5035933;28;20694;-75
2021/12/29 00:07:25;;;;;;;18.43;17.27;;;;;;;;;;5035078;28;20196;-75
2021/12/29 00:09:54;;;;;;;24.70;20.50;;;;;;;;;;5035018;28;20203;-75
2021/12/29 00:12:25;;;;;;;21.33;19.90;;;;;;;;;;5035259;28;20570;-75
2021/12/29 00:14:52;;;;;;;20.90;19.33;;;;;;;;;;5035265;28;20199;-74
2021/12/29 00:17:18;;;;;;;18.40;17.50;;;;;;;;;;5034940;28;20253;-76
2021/12/29 00:19:45;;;;;;;20.40;18.93;;;;;;;;;;5034883;28;20282;-75
2021/12/29 00:22:13;;;;;;;20.13;18.87;;;;;;;;;;5034719;28;20705;-74
2021/12/29 00:24:40;;;;;;;16.67;15.97;;;;;;;;;;5035043;28;20199;-74
2021/12/29 00:27:07;;;;;;;19.00;17.83;;;;;;;;;;5034948;28;20280;-75
2021/12/29 00:29:34;;;;;;;17.93;17.23;;;;;;;;;;5034965;28;20207;-74
2021/12/29 00:32:01;;;;;;;18.07;17.27;;;;;;;;;;5034581;28;20196;-75
2021/12/29 00:34:28;;;;;;;20.73;18.83;;;;;;;;;;5034612;28;20291;-74
2021/12/29 00:36:54;;;;;;;23.00;21.27;;;;;;;;;;5034852;28;20204;-75
2021/12/29 00:39:22;;;;;;;22.67;20.70;;;;;;;;;;5034763;28;20732;-75
2021/12/29 00:41:49;;;;;;;21.87;19.93;;;;;;;;;;5034434;28;20753;-74
2021/12/29 00:44:16;;;;;;;17.13;16.37;;;;;;;;;;5034244;28;20604;-75
2021/12/29 00:46:42;;;;;;;17.77;16.87;;;;;;;;;;5034355;28;20200;-74
2021/12/29 00:49:10;;;;;;;23.80;21.77;;;;;;;;;;5034357;28;20204;-74
2021/12/29 00:51:36;;;;;;;21.07;19.47;;;;;;;;;;5034134;28;20228;-75
2021/12/29 00:54:04;;;;;;;20.00;18.93;;;;;;;;;;5034241;28;20230;-75
2021/12/29 00:56:32;;;;;;;22.33;20.63;;;;;;;;;;5034098;28;20196;-75
2021/12/29 00:58:59;;;;;;;17.07;16.37;;;;;;;;;;5034416;28;20760;-74
2021/12/29 01:01:28;;;;;;;17.47;16.57;;;;;;;;;;5033901;28;20231;-74
2021/12/29 01:03:55;;;;;;;21.57;19.93;;;;;;;;;;5034280;28;20223;-75
2021/12/29 01:06:21;;;;;;;19.83;18.63;;;;;;;;;;5034038;28;20653;-74
2021/12/29 01:08:49;;;;;;;17.57;15.87;;;;;;;;;;5034214;28;20200;-74
2021/12/29 01:11:16;;;;;;;27.23;24.17;;;;;;;;;;5033897;28;20206;-75
2021/12/29 01:13:48;;;;;;;21.73;19.90;;;;;;;;;;5034094;28;20279;-74
2021/12/29 01:18:59;;;;;;;19.40;18.17;;;;;;;;;;5033428;28;20674;-75
2021/12/29 01:21:26;;;;;;;21.60;19.33;;;;;;;;;;5034012;28;20227;-75
2021/12/29 01:23:53;;;;;;;19.67;18.67;;;;;;;;;;5033585;28;20706;-75
2021/12/29 01:26:19;;;;;;;17.00;16.30;;;;;;;;;;5033631;28;20231;-75
2021/12/29 01:28:48;;;;;;;17.30;16.60;;;;;;;;;;5033861;28;20245;-75
2021/12/29 01:31:14;;;;;;;20.40;18.67;;;;;;;;;;5033774;28;20655;-76
2021/12/29 01:33:41;;;;;;;19.50;18.60;;;;;;;;;;5033510;28;20330;-75
2021/12/29 01:36:08;;;;;;;20.23;19.23;;;;;;;;;;5033707;28;20258;-75
2021/12/29 01:38:35;;;;;;;17.27;16.53;;;;;;;;;;5033699;28;20654;-76
2021/12/29 01:41:01;;;;;;;20.67;19.17;;;;;;;;;;5033649;28;20227;-75
2021/12/29 01:43:28;;;;;;;17.30;16.30;;;;;;;;;;5033134;28;20224;-74
2021/12/29 01:45:56;;;;;;;19.10;17.90;;;;;;;;;;5033536;28;20192;-75
2021/12/29 01:48:23;;;;;;;17.87;16.93;;;;;;;;;;5033103;28;20228;-75
2021/12/29 01:50:51;;;;;;;20.20;19.00;;;;;;;;;;5032939;28;20235;-75
2021/12/29 01:53:23;;;;;;;16.53;15.53;;;;;;;;;;5033393;28;20200;-74
2021/12/29 01:55:50;;;;;;;22.43;20.27;;;;;;;;;;5033079;28;20192;-74
2021/12/29 01:58:18;;;;;;;22.87;20.97;;;;;;;;;;5033049;28;20283;-75
2021/12/29 02:00:47;;;;;;;23.73;21.53;;;;;;;;;;5033234;28;20235;-76
2021/12/29 02:03:15;;;;;;;15.03;14.47;;;;;;;;;;5032808;28;20318;-74
2021/12/29 02:05:42;;;;;;;20.30;18.60;;;;;;;;;;5032819;28;20230;-74
2021/12/29 02:08:09;;;;;;;20.00;18.73;;;;;;;;;;5033137;28;20196;-74
2021/12/29 02:10:42;;;;;;;22.23;19.63;;;;;;;;;;5032767;28;20258;-75
2021/12/29 02:13:09;;;;;;;20.17;18.70;;;;;;;;;;5032361;28;20291;-73
2021/12/29 02:15:36;;;;;;;17.23;16.43;;;;;;;;;;5032707;28;20560;-75
2021/12/29 02:18:11;;;;;;;22.27;20.47;;;;;;;;;;5031805;28;20215;-75
2021/12/29 02:20:39;;;;;;;15.53;14.93;;;;;;;;;;5032992;28;20628;-74
2021/12/29 02:23:13;;;;;;;16.93;16.10;;;;;;;;;;5032465;28;20235;-74
2021/12/29 02:25:49;;;;;;;17.07;16.37;;;;;;;;;;5032855;28;20202;-75
2021/12/29 02:28:16;;;;;;;19.70;18.70;;;;;;;;;;5032530;28;20194;-77
2021/12/29 02:30:43;;;;;;;22.00;19.97;;;;;;;;;;5032774;28;20206;-74
2021/12/29 02:33:13;;;;;;;20.77;19.07;;;;;;;;;;5032657;28;20203;-74
2021/12/29 02:35:41;;;;;;;19.30;17.70;;;;;;;;;;5032646;28;20642;-74
2021/12/29 02:38:12;;;;;;;16.70;16.00;;;;;;;;;;5032604;28;20195;-75
2021/12/29 02:40:38;;;;;;;16.07;15.40;;;;;;;;;;5032266;28;20658;-74
2021/12/29 02:43:06;;;;;;;18.37;17.27;;;;;;;;;;5032215;28;20258;-75
2021/12/29 02:45:34;;;;;;;18.23;17.33;;;;;;;;;;5032223;28;20203;-77
2021/12/29 02:48:01;;;;;;;17.13;16.27;;;;;;;;;;5032171;28;20200;-74
2021/12/29 02:50:27;;;;;;;16.13;15.53;;;;;;;;;;5032108;28;20259;-75
2021/12/29 02:52:56;;;;;;;19.53;18.33;;;;;;;;;;5032161;28;20198;-74
2021/12/29 02:55:23;;;;;;;18.23;17.43;;;;;;;;;;5032019;28;20287;-75
2021/12/29 02:57:50;;;;;;;16.73;16.03;;;;;;;;;;5032048;28;20580;-75
2021/12/29 03:00:17;;;;;;;17.37;16.67;;;;;;;;;;5032093;28;20250;-75
2021/12/29 03:02:44;;;;;;;18.17;17.37;;;;;;;;;;5032206;28;20295;-75
2021/12/29 03:05:11;;;;;;;19.17;18.07;;;;;;;;;;5031995;28;20254;-75
2021/12/29 03:07:38;;;;;;;18.73;17.93;;;;;;;;;;5032232;28;20254;-75
2021/12/29 03:10:06;;;;;;;19.90;19.00;;;;;;;;;;5032244;28;20195;-74
2021/12/29 03:12:33;;;;;;;21.80;20.67;;;;;;;;;;5032185;28;20200;-75
2021/12/29 03:14:59;;;;;;;18.93;17.70;;;;;;;;;;5031824;28;20282;-75
2021/12/29 03:17:27;;;;;;;19.63;18.50;;;;;;;;;;5031892;28;20276;-75
2021/12/29 03:19:54;;;;;;;16.57;15.83;;;;;;;;;;5031866;28;20734;-74
2021/12/29 03:22:20;;;;;;;15.93;15.23;;;;;;;;;;5032127;28;20622;-75
2021/12/29 03:24:47;;;;;;;16.20;15.50;;;;;;;;;;5033218;28;20234;-75
2021/12/29 03:27:15;;;;;;;15.57;14.97;;;;;;;;;;5036101;28;20235;-74
2021/12/29 03:29:42;;;;;;;18.37;17.03;;;;;;;;;;5035761;28;20734;-74
2021/12/29 03:32:19;;;;;;;16.37;15.77;;;;;;;;;;5036016;28;20196;-74
2021/12/29 03:34:47;;;;;;;17.87;16.90;;;;;;;;;;5036056;28;20187;-75
2021/12/29 03:37:13;;;;;;;15.60;15.00;;;;;;;;;;5035649;28;20663;-75
2021/12/29 03:39:40;;;;;;;16.47;15.83;;;;;;;;;;5035618;28;20206;-75
2021/12/29 03:42:07;;;;;;;16.40;15.80;;;;;;;;;;5035845;28;20195;-75
2021/12/29 03:44:35;;;;;;;15.77;15.17;;;;;;;;;;5036247;28;20234;-75
2021/12/29 03:47:02;;;;;;;19.33;18.20;;;;;;;;;;5036308;28;20199;-74
2021/12/29 03:49:29;;;;;;;17.13;16.33;;;;;;;;;;5035407;28;20202;-74
2021/12/29 03:51:56;;;;;;;15.50;14.90;;;;;;;;;;5035313;28;20286;-75
2021/12/29 03:54:22;;;;;;;16.03;15.43;;;;;;;;;;5035389;28;20658;-74
2021/12/29 03:56:49;;;;;;;15.87;15.13;;;;;;;;;;5035610;28;20227;-74
2021/12/29 03:59:16;;;;;;;14.50;14.00;;;;;;;;;;5035565;28;20191;-74
2021/12/29 04:01:46;;;;;;;13.60;13.10;;;;;;;;;;5035488;28;20238;-75
2021/12/29 04:04:12;;;;;;;14.83;14.23;;;;;;;;;;5035111;28;20234;-75
2021/12/29 04:06:39;;;;;;;15.43;14.83;;;;;;;;;;5035417;28;20265;-75
2021/12/29 04:09:06;;;;;;;15.90;15.30;;;;;;;;;;5035118;28;20235;-75
2021/12/29 04:11:32;;;;;;;15.27;14.67;;;;;;;;;;5035051;28;20195;-74
2021/12/29 04:13:59;;;;;;;17.20;16.50;;;;;;;;;;5034936;28;20286;-75
2021/12/29 04:16:26;;;;;;;16.47;15.80;;;;;;;;;;5035232;28;20200;-75
2021/12/29 04:19:06;;;;;;;16.60;15.90;;;;;;;;;;5034794;28;20239;-75
2021/12/29 04:21:33;;;;;;;17.53;16.77;;;;;;;;;;5035184;28;20199;-75
2021/12/29 04:24:00;;;;;;;16.30;15.70;;;;;;;;;;5035074;28;20478;-75
2021/12/29 04:26:27;;;;;;;16.43;15.80;;;;;;;;;;5034736;28;20231;-75
2021/12/29 04:28:54;;;;;;;18.10;17.07;;;;;;;;;;5034663;28;20238;-75
2021/12/29 04:31:20;;;;;;;16.37;15.77;;;;;;;;;;5034951;28;20197;-75
2021/12/29 04:33:49;;;;;;;18.90;18.03;;;;;;;;;;5034640;28;20200;-75
2021/12/29 04:36:23;;;;;;;18.17;16.83;;;;;;;;;;5033984;28;20574;-75
2021/12/29 04:38:50;;;;;;;16.43;15.83;;;;;;;;;;5034611;28;20361;-75
2021/12/29 04:41:17;;;;;;;17.90;17.00;;;;;;;;;;5034450;28;20670;-75
2021/12/29 04:43:44;;;;;;;17.30;16.60;;;;;;;;;;5034356;28;20227;-75
2021/12/29 04:46:14;;;;;;;16.27;15.63;;;;;;;;;;5034671;28;20736;-75
2021/12/29 04:48:47;;;;;;;15.53;14.93;;;;;;;;;;5034610;28;20211;-75
2021/12/29 04:51:16;;;;;;;15.83;15.23;;;;;;;;;;5034236;28;20236;-75
2021/12/29 04:53:44;;;;;;;15.57;14.97;;;;;;;;;;5034237;28;20291;-75
2021/12/29 04:56:10;;;;;;;14.67;14.17;;;;;;;;;;5034501;28;20329;-75
2021/12/29 04:58:37;;;;;;;15.57;14.73;;;;;;;;;;5034506;28;20250;-74
2021/12/29 05:01:04;;;;;;;17.50;15.93;;;;;;;;;;5034419;28;20234;-74
2021/12/29 05:03:31;;;;;;;15.47;14.53;;;;;;;;;;5034248;28;20260;-74
2021/12/29 05:08:24;;;;;;;15.60;14.80;;;;;;;;;;5033987;28;20200;-75
2021/12/29 05:08:45;;;;;;;12.77;12.37;;;;;;;;;;5033940;28;20192;-76
2021/12/29 05:11:13;;;;;;;13.13;12.73;;;;;;;;;;5033908;28;20200;-74
2021/12/29 05:13:41;;;;;;;13.20;12.70;;;;;;;;;;5034163;28;20669;-75
2021/12/29 05:16:09;;;;;;;15.60;14.73;;;;;;;;;;5033880;28;20196;-75
2021/12/29 05:18:36;;;;;;;15.83;15.13;;;;;;;;;;5034085;28;20234;-75
2021/12/29 05:21:04;;;;;;;14.87;14.27;;;;;;;;;;5034012;28;20196;-74
2021/12/29 05:23:30;;;;;;;14.37;13.67;;;;;;;;;;5033908;28;20261;-75
2021/12/29 05:25:58;;;;;;;14.97;14.47;;;;;;;;;;5033905;28;20250;-74
2021/12/29 05:28:25;;;;;;;15.17;14.43;;;;;;;;;;5033598;28;20717;-75
2021/12/29 05:30:53;;;;;;;15.30;14.40;;;;;;;;;;5033593;28;20196;-75
2021/12/29 05:33:19;;;;;;;17.37;16.40;;;;;;;;;;5033525;28;20291;-74
2021/12/29 05:35:46;;;;;;;17.87;16.60;;;;;;;;;;5033449;28;20235;-75
2021/12/29 05:38:13;;;;;;;18.10;16.90;;;;;;;;;;5033647;28;20200;-74
2021/12/29 05:40:40;;;;;;;15.70;14.90;;;;;;;;;;5033399;28;20200;-74
2021/12/29 05:43:08;;;;;;;15.30;14.70;;;;;;;;;;5033298;28;20641;-74
2021/12/29 05:45:35;;;;;;;15.70;15.00;;;;;;;;;;5033548;28;20250;-74
2021/12/29 05:48:01;;;;;;;16.00;15.30;;;;;;;;;;5033259;28;20200;-74
2021/12/29 05:50:29;;;;;;;16.40;15.70;;;;;;;;;;5032929;28;20754;-75
2021/12/29 05:52:56;;;;;;;15.73;15.13;;;;;;;;;;5033156;28;20276;-74
2021/12/29 05:55:23;;;;;;;17.77;16.80;;;;;;;;;;5033047;28;20254;-75
2021/12/29 05:57:50;;;;;;;14.90;14.40;;;;;;;;;;5033384;28;20200;-75
2021/12/29 06:00:19;;;;;;;15.80;15.13;;;;;;;;;;5032998;28;20542;-75
2021/12/29 06:02:46;;;;;;;17.43;16.57;;;;;;;;;;5032969;28;20195;-75
2021/12/29 06:05:13;;;;;;;15.53;14.87;;;;;;;;;;5032862;28;20233;-74
2021/12/29 06:07:39;;;;;;;17.73;16.40;;;;;;;;;;5032884;28;20196;-73
2021/12/29 06:10:07;;;;;;;13.77;13.27;;;;;;;;;;5033203;28;20196;-74
2021/12/29 06:12:34;;;;;;;14.10;13.60;;;;;;;;;;5033037;28;20223;-74
2021/12/29 06:15:01;;;;;;;19.03;17.93;;;;;;;;;;5032681;28;20598;-75
2021/12/29 06:17:29;;;;;;;16.60;15.53;;;;;;;;;;5032984;28;20279;-74
2021/12/29 06:19:56;;;;;;;16.93;16.23;;;;;;;;;;5032615;28;20195;-74
2021/12/29 06:22:23;;;;;;;15.30;14.50;;;;;;;;;;5032618;28;20196;-74
2021/12/29 06:24:52;;;;;;;15.67;14.97;;;;;;;;;;5032445;28;20258;-74
2021/12/29 06:27:19;;;;;;;16.13;15.23;;;;;;;;;;5032527;28;20196;-74
2021/12/29 06:29:46;;;;;;;17.67;16.23;;;;;;;;;;5032787;28;20196;-75
2021/12/29 06:32:13;;;;;;;16.83;15.93;;;;;;;;;;5032666;28;20299;-74
2021/12/29 06:34:41;;;;;;;16.17;14.90;;;;;;;;;;5032717;28;20287;-74
2021/12/29 06:37:09;;;;;;;15.33;14.60;;;;;;;;;;5032661;28;20231;-74
2021/12/29 06:39:36;;;;;;;20.40;16.80;;;;;;;;;;5032661;28;20199;-74
2021/12/29 06:42:03;;;;;;;18.37;17.37;;;;;;;;;;5032545;28;20222;-75
2021/12/29 06:44:30;;;;;;;14.53;13.80;;;;;;;;;;5032135;28;20263;-74
2021/12/29 06:46:57;;;;;;;14.83;14.23;;;;;;;;;;5032550;28;20280;-75
2021/12/29 06:49:24;;;;;;;13.93;13.43;;;;;;;;;;5032011;28;20196;-74
2021/12/29 06:51:52;;;;;;;13.60;13.10;;;;;;;;;;5032090;28;20318;-74
2021/12/29 06:54:18;;;;;;;16.30;15.53;;;;;;;;;;5032366;28;20589;-74
2021/12/29 06:56:45;;;;;;;14.90;14.30;;;;;;;;;;5032400;28;20250;-74
2021/12/29 06:59:12;;;;;;;15.33;14.73;;;;;;;;;;5031644;28;20683;-74
2021/12/29 07:01:38;;;;;;;23.57;18.43;;;;;;;;;;5032297;28;20223;-74
2021/12/29 07:04:05;;;;;;;17.03;15.40;;;;;;;;;;5031911;28;20282;-74
2021/12/29 07:06:32;;;;;;;15.80;15.10;;;;;;;;;;5031893;28;20235;-75
2021/12/29 07:09:00;;;;;;;15.73;15.03;;;;;;;;;;5032357;28;20199;-75
2021/12/29 07:11:27;;;;;;;15.17;14.47;;;;;;;;;;5032003;28;20196;-76
2021/12/29 07:13:53;;;;;;;16.33;15.63;;;;;;;;;;5031833;28;20690;-75
2021/12/29 07:16:20;;;;;;;15.60;15.00;;;;;;;;;;5032206;28;20203;-74
2021/12/29 07:18:48;;;;;;;15.37;14.77;;;;;;;;;;5032111;28;20207;-75
2021/12/29 07:21:15;;;;;;;15.53;14.93;;;;;;;;;;5032039;28;20228;-75
2021/12/29 07:23:42;;;;;;;15.43;14.83;;;;;;;;;;5031841;28;20242;-75
2021/12/29 07:26:10;;;;;;;16.13;15.23;;;;;;;;;;5031743;28;20292;-75
2021/12/29 07:28:43;;;;;;;20.67;19.30;;;;;;;;;;5032225;28;20257;-74
2021/12/29 07:31:20;;;;;;;19.77;16.10;;;;;;;;;;5031880;28;20191;-75
2021/12/29 07:33:47;;;;;;;16.43;15.73;;;;;;;;;;5032360;28;20195;-74
2021/12/29 07:36:14;;;;;;;16.40;15.70;;;;;;;;;;5031605;28;20618;-74
2021/12/29 07:38:41;;;;;;;19.40;18.20;;;;;;;;;;5032268;28;20553;-73
2021/12/29 07:41:09;;;;;;;18.20;17.03;;;;;;;;;;5032249;28;20658;-74
2021/12/29 07:43:38;;;;;;;20.47;18.83;;;;;;;;;;5032086;28;20273;-73
2021/12/29 07:46:06;;;;;;;16.97;15.97;;;;;;;;;;5031786;28;20235;-76
2021/12/29 07:48:33;;;;;;;18.47;17.43;;;;;;;;;;5031754;28;20200;-73
2021/12/29 07:51:04;;;;;;;15.80;15.10;;;;;;;;;;5031726;28;20301;-75
2021/12/29 07:53:30;;;;;;;15.97;15.27;;;;;;;;;;5032708;28;20230;-74
2021/12/29 07:55:57;;;;;;;15.90;15.20;;;;;;;;;;5032042;28;20234;-74
2021/12/29 07:58:24;;;;;;;16.47;15.77;;;;;;;;;;5032659;28;20254;-74
2021/12/29 08:00:52;;;;;;;17.47;16.67;;;;;;;;;;5031546;28;20242;-75
2021/12/29 08:03:19;;;;;;;20.17;19.00;;;;;;;;;;5031811;28;20226;-74
2021/12/29 08:05:46;;;;;;;18.50;16.40;;;;;;;;;;5031680;28;20282;-74
2021/12/29 08:08:13;;;;;;;19.50;18.57;;;;;;;;;;5031421;28;20235;-74
2021/12/29 08:10:40;;;;;;;17.53;16.73;;;;;;;;;;5031684;28;20198;-75
2021/12/29 08:13:07;;;;;;;19.03;18.13;;;;;;;;;;5034729;28;20295;-74
2021/12/29 08:15:34;;;;;;;16.93;16.13;;;;;;;;;;5035315;28;20196;-75
2021/12/29 08:18:04;;;;;;;21.47;20.13;;;;;;;;;;5034946;28;20663;-74
2021/12/29 08:20:32;;;;;;;21.80;20.80;;;;;;;;;;5034978;28;20200;-74
2021/12/29 08:22:59;;;;;;;17.47;16.67;;;;;;;;;;5034778;28;20666;-75
2021/12/29 08:25:26;;;;;;;23.27;21.80;;;;;;;;;;5035034;28;20262;-74
2021/12/29 08:27:52;;;;;;;20.97;19.73;;;;;;;;;;5034714;28;20804;-74
2021/12/29 08:30:19;;;;;;;18.00;17.20;;;;;;;;;;5034784;28;20196;-75
2021/12/29 08:32:46;;;;;;;18.60;17.80;;;;;;;;;;5034996;28;20200;-75
2021/12/29 08:35:14;;;;;;;20.70;19.60;;;;;;;;;;5034890;28;20277;-74
2021/12/29 08:37:43;;;;;;;18.17;17.37;;;;;;;;;;5034908;28;20647;-74
2021/12/29 08:40:11;;;;;;;18.57;17.77;;;;;;;;;;5034491;28;20199;-76
2021/12/29 08:42:38;;;;;;;18.53;17.73;;;;;;;;;;5034471;28;20198;-74
2021/12/29 08:45:06;;;;;;;17.50;16.80;;;;;;;;;;5034633;28;20309;-74
2021/12/29 08:47:32;;;;;;;19.70;18.70;;;;;;;;;;5034726;28;20608;-74
2021/12/29 08:49:59;;;;;;;19.17;18.27;;;;;;;;;;5034380;28;20196;-74
2021/12/29 08:52:27;;;;;;;19.77;18.83;;;;;;;;;;5034124;28;20269;-75
2021/12/29 08:54:54;;;;;;;18.87;17.97;;;;;;;;;;5034585;28;20200;-75
2021/12/29 08:57:21;;;;;;;20.27;19.27;;;;;;;;;;5034176;28;20199;-74
2021/12/29 08:59:47;;;;;;;17.33;16.53;;;;;;;;;;5034476;28;20234;-74
2021/12/29 09:02:14;;;;;;;21.50;20.40;;;;;;;;;;5034125;28;20231;-74
2021/12/29 09:04:41;;;;;;;19.77;18.67;;;;;;;;;;5034339;28;20207;-74
2021/12/29 09:07:08;;;;;;;20.40;19.33;;;;;;;;;;5034389;28;20239;-75
2021/12/29 09:09:36;;;;;;;20.80;19.47;;;;;;;;;;5033963;28;20191;-74
2021/12/29 09:12:03;;;;;;;25.47;23.53;;;;;;;;;;5033963;28;20694;-76
2021/12/29 09:14:29;;;;;;;20.20;19.20;;;;;;;;;;5034203;28;20314;-74
2021/12/29 09:16:56;;;;;;;23.47;22.17;;;;;;;;;;5033822;28;20290;-74
2021/12/29 09:19:23;;;;;;;20.03;18.60;;;;;;;;;;5034124;28;20254;-74
2021/12/29 09:21:53;;;;;;;37.80;34.20;;;;;;;;;;5034359;28;20291;-74
2021/12/29 09:24:19;;;;;;;20.63;19.63;;;;;;;;;;5033765;28;20231;-75
2021/12/29 09:26:48;;;;;;;24.10;22.77;;;;;;;;;;5033907;28;20270;-75
2021/12/29 09:29:15;;;;;;;21.93;20.73;;;;;;;;;;5033661;28;20235;-74
2021/12/29 09:31:41;;;;;;;24.17;22.77;;;;;;;;;;5033602;28;20243;-74
2021/12/29 09:34:08;;;;;;;23.20;22.00;;;;;;;;;;5033819;28;20203;-74
2021/12/29 09:36:35;;;;;;;21.03;19.93;;;;;;;;;;5033878;28;20648;-74
2021/12/29 09:39:02;;;;;;;22.00;20.67;;;;;;;;;;5033460;28;20724;-74
2021/12/29 09:41:31;;;;;;;25.73;23.80;;;;;;;;;;5033696;28;20577;-74
2021/12/29 09:43:59;;;;;;;22.63;21.43;;;;;;;;;;5033331;28;20192;-74
2021/12/29 09:46:26;;;;;;;26.73;24.90;;;;;;;;;;5033179;28;20527;-74
2021/12/29 09:48:52;;;;;;;20.60;19.60;;;;;;;;;;5033293;28;20287;-74
2021/12/29 09:51:19;;;;;;;19.30;18.40;;;;;;;;;;5032921;28;20732;-76
2021/12/29 09:53:46;;;;;;;18.60;17.70;;;;;;;;;;5033218;28;20254;-74
2021/12/29 09:56:14;;;;;;;20.37;19.27;;;;;;;;;;5033451;28;20215;-74
2021/12/29 09:58:41;;;;;;;20.17;19.07;;;;;;;;;;5033111;28;20203;-75
2021/12/29 10:01:10;;;;;;;18.70;17.80;;;;;;;;;;5033092;28;20203;-74
2021/12/29 10:03:37;;;;;;;19.47;18.57;;;;;;;;;;5033776;28;20282;-75
2021/12/29 10:06:05;;;;;;;19.97;18.93;;;;;;;;;;5032878;28;20227;-74
2021/12/29 10:08:34;;;;;;;18.23;17.43;;;;;;;;;;5032857;28;20602;-74
2021/12/29 10:11:02;;;;;;;19.73;18.73;;;;;;;;;;5033142;28;20311;-74
2021/12/29 10:13:29;;;;;;;17.73;16.93;;;;;;;;;;5032780;28;20196;-74
2021/12/29 10:16:00;;;;;;;24.53;22.73;;;;;;;;;;5033840;28;20293;-74
2021/12/29 10:18:29;;;;;;;19.07;18.10;;;;;;;;;;5032718;28;20279;-74
2021/12/29 10:20:57;;;;;;;20.33;19.13;;;;;;;;;;5032915;28;20218;-74
2021/12/29 10:23:25;;;;;;;19.27;18.37;;;;;;;;;;5032661;28;20235;-74
2021/12/29 10:25:52;;;;;;;28.60;26.83;;;;;;;;;;5032453;28;20750;-74
2021/12/29 10:28:23;;;;;;;20.67;19.67;;;;;;;;;;5032820;28;20613;-74
2021/12/29 10:30:55;;;;;;;20.20;19.20;;;;;;;;;;5032504;28;20670;-74
2021/12/29 10:33:22;;;;;;;18.30;17.40;;;;;;;;;;5032679;28;20188;-74
2021/12/29 10:35:50;;;;;;;21.90;20.80;;;;;;;;;;5032279;28;20246;-74
2021/12/29 10:38:18;;;;;;;20.20;19.20;;;;;;;;;;5032353;28;20200;-74
2021/12/29 10:40:45;;;;;;;19.50;18.53;;;;;;;;;;5032594;28;20192;-74
2021/12/29 10:43:12;;;;;;;18.77;17.87;;;;;;;;;;5032617;28;20196;-74
2021/12/29 10:45:40;;;;;;;22.60;20.63;;;;;;;;;;5032180;28;20697;-74
2021/12/29 10:48:17;;;;;;;22.37;21.13;;;;;;;;;;5032518;28;20203;-74
2021/12/29 10:50:56;;;;;;;18.13;17.23;;;;;;;;;;5031931;28;20231;-74
2021/12/29 10:53:22;;;;;;;16.10;15.40;;;;;;;;;;5032121;28;20654;-74
2021/12/29 10:55:51;;;;;;;19.70;18.40;;;;;;;;;;5032161;28;20192;-74
2021/12/29 10:58:19;;;;;;;23.77;21.23;;;;;;;;;;5032367;28;20206;-74
2021/12/29 11:00:47;;;;;;;19.43;18.43;;;;;;;;;;5032062;28;20733;-74
2021/12/29 11:03:15;;;;;;;19.23;18.23;;;;;;;;;;5032018;28;20627;-74
2021/12/29 11:05:43;;;;;;;22.53;21.20;;;;;;;;;;5032195;28;20314;-74
2021/12/29 11:08:11;;;;;;;23.37;21.87;;;;;;;;;;5032276;28;20227;-74
2021/12/29 11:10:38;;;;;;;22.60;21.13;;;;;;;;;;5032242;28;20195;-74
2021/12/29 11:13:05;;;;;;;20.37;19.27;;;;;;;;;;5032286;28;20292;-74
2021/12/29 11:15:34;;;;;;;21.10;19.60;;;;;;;;;;5032265;28;20207;-74
2021/12/29 11:18:04;;;;;;;18.60;17.70;;;;;;;;;;5032260;28;20700;-74
2021/12/29 11:20:31;;;;;;;19.70;18.70;;;;;;;;;;5031895;28;20200;-75
2021/12/29 11:23:05;;;;;;;20.13;19.03;;;;;;;;;;5032132;28;20199;-74
2021/12/29 11:25:33;;;;;;;21.93;20.63;;;;;;;;;;5032116;28;20198;-74
2021/12/29 11:28:00;;;;;;;20.23;19.13;;;;;;;;;;5031789;28;20295;-74
2021/12/29 11:30:28;;;;;;;22.63;21.43;;;;;;;;;;5031877;28;20223;-74
2021/12/29 11:33:04;;;;;;;20.60;19.50;;;;;;;;;;5031713;28;20732;-74
2021/12/29 11:35:30;;;;;;;20.30;19.23;;;;;;;;;;5031753;28;20223;-74
2021/12/29 11:37:59;;;;;;;22.60;21.40;;;;;;;;;;5031688;28;20192;-75
2021/12/29 11:40:27;;;;;;;25.03;23.40;;;;;;;;;;5031975;28;20219;-74
2021/12/29 11:42:56;;;;;;;24.67;23.03;;;;;;;;;;5031683;28;20227;-74
2021/12/29 11:45:23;;;;;;;21.40;20.27;;;;;;;;;;5032337;28;20200;-74
2021/12/29 11:47:50;;;;;;;19.50;18.50;;;;;;;;;;5035925;28;20232;-74
2021/12/29 11:50:19;;;;;;;23.57;22.27;;;;;;;;;;5035274;28;20199;-74
2021/12/29 11:52:59;;;;;;;22.60;21.50;;;;;;;;;;5035460;28;20193;-74
2021/12/29 11:55:30;;;;;;;22.73;21.53;;;;;;;;;;5035409;28;20242;-74
2021/12/29 11:58:07;;;;;;;22.80;21.60;;;;;;;;;;5035666;28;20282;-74
2021/12/29 12:00:34;;;;;;;22.47;21.27;;;;;;;;;;5035668;28;20269;-75
2021/12/29 12:03:06;;;;;;;24.90;23.40;;;;;;;;;;5035628;28;20257;-74
2021/12/29 12:05:35;;;;;;;21.63;20.43;;;;;;;;;;5035470;28;20349;-74
2021/12/29 12:08:06;;;;;;;24.10;22.80;;;;;;;;;;5035476;28;20579;-74
2021/12/29 12:10:35;;;;;;;25.00;23.53;;;;;;;;;;5035128;28;20199;-74
2021/12/29 12:13:06;;;;;;;23.27;21.53;;;;;;;;;;5035404;28;20199;-74
2021/12/29 12:15:34;;;;;;;20.90;19.80;;;;;;;;;;5035334;28;20281;-74
2021/12/29 12:18:06;;;;;;;21.63;20.47;;;;;;;;;;5035311;28;20207;-75
2021/12/29 12:20:39;;;;;;;20.47;19.37;;;;;;;;;;5034995;28;20187;-75
2021/12/29 12:23:06;;;;;;;20.37;19.27;;;;;;;;;;5035253;28;20196;-74
2021/12/29 12:25:33;;;;;;;19.70;18.70;;;;;;;;;;5035079;28;20238;-74
2021/12/29 12:28:02;;;;;;;17.60;16.80;;;;;;;;;;5034745;28;20287;-74
2021/12/29 12:30:37;;;;;;;22.43;20.87;;;;;;;;;;5035047;28;20199;-75
2021/12/29 12:33:10;;;;;;;18.20;17.30;;;;;;;;;;5035010;28;20231;-74
2021/12/29 12:35:38;;;;;;;19.67;18.57;;;;;;;;;;5035070;28;20587;-74
2021/12/29 12:38:13;;;;;;;19.23;18.23;;;;;;;;;;5034879;28;20254;-74
2021/12/29 12:40:41;;;;;;;21.23;19.90;;;;;;;;;;5035589;28;20289;-76
2021/12/29 12:43:10;;;;;;;21.50;20.40;;;;;;;;;;5034499;28;20196;-74
2021/12/29 12:45:39;;;;;;;21.27;19.73;;;;;;;;;;5034815;28;20202;-75
2021/12/29 12:48:08;;;;;;;20.80;19.73;;;;;;;;;;5034399;28;20244;-75
2021/12/29 12:50:36;;;;;;;20.27;19.27;;;;;;;;;;5034503;28;20240;-74
2021/12/29 12:53:03;;;;;;;22.70;20.67;;;;;;;;;;5034719;28;20207;-75
2021/12/29 12:55:32;;;;;;;19.60;18.60;;;;;;;;;;5034309;28;20721;-75
2021/12/29 12:58:07;;;;;;;20.03;19.03;;;;;;;;;;5033589;28;20257;-74
2021/12/29 13:00:34;;;;;;;21.73;20.43;;;;;;;;;;5034551;28;20191;-74
2021/12/29 13:03:04;;;;;;;23.83;22.47;;;;;;;;;;5034221;28;20562;-74
2021/12/29 13:05:32;;;;;;;20.50;19.40;;;;;;;;;;5034119;28;20195;-75
2021/12/29 13:08:03;;;;;;;21.37;20.07;;;;;;;;;;5034102;28;20227;-75
2021/12/29 13:10:31;;;;;;;22.43;21.17;;;;;;;;;;5034107;28;20192;-75
2021/12/29 13:13:00;;;;;;;25.00;23.50;;;;;;;;;;5034285;28;20191;-74
2021/12/29 13:15:29;;;;;;;26.33;24.73;;;;;;;;;;5033988;28;20192;-74
2021/12/29 13:17:55;;;;;;;24.43;23.03;;;;;;;;;;5033941;28;20192;-75
2021/12/29 13:20:24;;;;;;;23.60;22.30;;;;;;;;;;5034237;28;20228;-74
2021/12/29 13:22:50;;;;;;;22.10;20.90;;;;;;;;;;5034097;28;20196;-74
2021/12/29 13:25:18;;;;;;;20.93;19.83;;;;;;;;;;5034088;28;20200;-74
2021/12/29 13:27:45;;;;;;;20.77;19.67;;;;;;;;;;5033694;28;20231;-74
2021/12/29 13:30:13;;;;;;;19.80;18.70;;;;;;;;;;5033787;28;20257;-74
2021/12/29 13:32:53;;;;;;;20.37;19.27;;;;;;;;;;5033674;28;20192;-75
2021/12/29 13:35:25;;;;;;;18.87;17.87;;;;;;;;;;5033894;28;20246;-75
2021/12/29 13:37:52;;;;;;;18.03;17.13;;;;;;;;;;5033601;28;20286;-76
2021/12/29 13:40:19;;;;;;;17.73;16.83;;;;;;;;;;5033845;28;20196;-75
2021/12/29 13:42:46;;;;;;;19.47;18.30;;;;;;;;;;5033722;28;20200;-75
2021/12/29 13:45:23;;;;;;;18.93;17.93;;;;;;;;;;5033644;28;20275;-74
2021/12/29 13:47:50;;;;;;;17.43;16.53;;;;;;;;;;5033551;28;20758;-75
2021/12/29 13:50:17;;;;;;;16.77;15.97;;;;;;;;;;5033045;28;20199;-75
2021/12/29 13:52:56;;;;;;;16.73;15.93;;;;;;;;;;5033617;28;20188;-75
2021/12/29 13:55:26;;;;;;;15.43;14.73;;;;;;;;;;5033534;28;20245;-75
2021/12/29 13:57:53;;;;;;;16.33;15.63;;;;;;;;;;5033499;28;20210;-75
2021/12/29 14:00:20;;;;;;;16.67;15.87;;;;;;;;;;5033355;28;20273;-74
2021/12/29 14:02:47;;;;;;;15.37;14.67;;;;;;;;;;5033055;28;20196;-75
2021/12/29 14:05:15;;;;;;;16.30;15.60;;;;;;;;;;5033302;28;20249;-75
2021/12/29 14:07:41;;;;;;;15.30;14.60;;;;;;;;;;5033121;28;20227;-75
2021/12/29 14:10:10;;;;;;;15.13;14.53;;;;;;;;;;5031918;28;20202;-75
2021/12/29 14:12:37;;;;;;;14.90;14.30;;;;;;;;;;5033089;28;20254;-76
2021/12/29 14:15:06;;;;;;;14.80;14.20;;;;;;;;;;5032752;28;20571;-75
2021/12/29 14:17:37;;;;;;;15.53;14.83;;;;;;;;;;5033050;28;20246;-75
2021/12/29 14:20:05;;;;;;;15.60;14.90;;;;;;;;;;5033062;28;20262;-76
2021/12/29 14:22:32;;;;;;;15.90;15.20;;;;;;;;;;5032620;28;20200;-75